createdAt,value
2018-07-19T00:01:30.446Z,20.33
2018-07-19T00:03:59.120Z,20.28
2018-07-19T00:06:27.924Z,20.25
2018-07-19T00:08:56.598Z,20.20
2018-07-19T00:11:25.247Z,20.20
2018-07-19T00:13:53.897Z,20.18
2018-07-19T00:16:22.621Z,20.13
2018-07-19T00:18:51.279Z,20.10
2018-07-19T00:21:19.896Z,19.96
2018-07-19T00:23:48.692Z,19.83
2018-07-19T00:26:17.345Z,19.64
2018-07-19T00:28:45.972Z,19.59
2018-07-19T00:31:14.599Z,19.57
2018-07-19T00:33:43.273Z,19.58
2018-07-19T00:36:11.932Z,19.68
2018-07-19T00:38:40.689Z,19.68
2018-07-19T00:41:09.578Z,19.66
2018-07-19T00:43:38.358Z,19.62
2018-07-19T00:46:07.241Z,19.57
2018-07-19T00:48:36.029Z,19.50
2018-07-19T00:51:04.745Z,19.59
2018-07-19T00:53:33.469Z,19.60
2018-07-19T00:56:02.134Z,19.57
2018-07-19T00:58:31.065Z,19.53
2018-07-19T01:00:59.699Z,19.53
2018-07-19T01:03:28.379Z,19.46
2018-07-19T01:05:57.025Z,19.36
2018-07-19T01:08:25.707Z,19.23
2018-07-19T01:10:54.332Z,19.22
2018-07-19T01:13:23.013Z,19.21
2018-07-19T01:15:51.678Z,19.17
2018-07-19T01:18:20.290Z,19.13
2018-07-19T01:20:48.939Z,19.13
2018-07-19T01:23:17.799Z,19.09
2018-07-19T01:25:46.443Z,19.05
2018-07-19T01:28:15.136Z,19.08
2018-07-19T01:30:43.803Z,19.07
2018-07-19T01:33:12.492Z,19.09
2018-07-19T01:35:41.148Z,19.07
2018-07-19T01:38:09.868Z,19.10
2018-07-19T01:40:38.552Z,19.09
2018-07-19T01:43:07.340Z,19.09
2018-07-19T01:45:35.940Z,19.09
2018-07-19T01:48:04.560Z,19.03
2018-07-19T01:50:33.172Z,18.99
2018-07-19T01:53:01.784Z,19.00
2018-07-19T01:55:30.640Z,18.95
2018-07-19T01:57:59.256Z,18.92
2018-07-19T02:00:27.875Z,18.91
2018-07-19T02:02:56.598Z,18.86
2018-07-19T02:05:25.333Z,18.83
2018-07-19T02:07:54.044Z,18.77
2018-07-19T02:10:22.885Z,18.69
2018-07-19T02:12:51.544Z,18.68
2018-07-19T02:15:20.179Z,18.65
2018-07-19T02:17:48.979Z,18.51
2018-07-19T02:20:17.673Z,18.46
2018-07-19T02:22:46.276Z,18.45
2018-07-19T02:25:14.917Z,18.43
2018-07-19T02:27:43.547Z,18.48
2018-07-19T02:30:12.518Z,18.55
2018-07-19T02:32:41.106Z,18.58
2018-07-19T02:35:09.926Z,18.56
2018-07-19T02:37:38.631Z,18.52
2018-07-19T02:40:07.252Z,18.61
2018-07-19T02:42:35.895Z,18.65
2018-07-19T02:45:04.604Z,18.61
2018-07-19T02:47:33.278Z,18.65
2018-07-19T02:50:01.903Z,18.66
2018-07-19T02:52:30.574Z,18.71
2018-07-19T02:54:59.199Z,18.77
2018-07-19T02:57:27.893Z,18.71
2018-07-19T02:59:56.499Z,18.76
2018-07-19T03:02:25.117Z,18.79
2018-07-19T03:04:53.767Z,18.81
2018-07-19T03:07:22.513Z,18.86
2018-07-19T03:09:51.174Z,18.89
2018-07-19T03:12:19.786Z,18.89
2018-07-19T03:14:48.485Z,18.92
2018-07-19T03:17:17.204Z,18.99
2018-07-19T03:19:45.931Z,19.04
2018-07-19T03:22:14.865Z,19.10
2018-07-19T03:24:43.511Z,19.16
2018-07-19T03:27:12.086Z,19.28
2018-07-19T03:29:40.707Z,19.36
2018-07-19T03:32:09.412Z,19.37
2018-07-19T03:34:38.096Z,19.42
2018-07-19T03:37:06.809Z,19.47
2018-07-19T03:39:35.504Z,19.51
2018-07-19T03:42:04.159Z,19.53
2018-07-19T03:44:32.804Z,19.52
2018-07-19T03:47:01.513Z,19.51
2018-07-19T03:49:30.182Z,19.55
2018-07-19T03:51:58.821Z,19.63
2018-07-19T03:54:27.475Z,19.68
2018-07-19T03:56:56.277Z,19.74
2018-07-19T03:59:24.961Z,19.79
2018-07-19T04:01:53.690Z,19.85
2018-07-19T04:04:22.315Z,19.89
2018-07-19T04:06:50.967Z,19.96
2018-07-19T04:09:19.831Z,20.00
2018-07-19T04:11:48.478Z,20.05
2018-07-19T04:14:17.126Z,20.13
2018-07-19T04:16:46.070Z,20.21
2018-07-19T04:19:14.621Z,20.26
2018-07-19T04:21:43.252Z,20.29
2018-07-19T04:24:12.007Z,20.35
2018-07-19T04:26:40.698Z,20.41
2018-07-19T04:29:09.363Z,20.47
2018-07-19T04:31:38.071Z,20.50
2018-07-19T04:34:07.014Z,20.57
2018-07-19T04:36:35.668Z,20.59
2018-07-19T04:39:05.901Z,20.69
2018-07-19T04:41:34.692Z,20.77
2018-07-19T04:44:03.418Z,20.87
2018-07-19T04:46:32.039Z,20.97
2018-07-19T04:49:00.634Z,21.06
2018-07-19T04:51:29.329Z,21.14
2018-07-19T04:53:57.959Z,21.23
2018-07-19T04:56:26.709Z,21.30
2018-07-19T04:58:58.805Z,21.46
2018-07-19T05:01:27.612Z,21.98
2018-07-19T05:03:56.229Z,22.20
2018-07-19T05:06:24.849Z,22.30
2018-07-19T05:08:53.546Z,22.35
2018-07-19T05:11:22.257Z,22.47
2018-07-19T05:13:50.905Z,22.59
2018-07-19T05:16:19.726Z,22.75
2018-07-19T05:21:16.021Z,23.14
2018-07-19T05:23:44.680Z,23.36
2018-07-19T05:26:13.343Z,23.54
2018-07-19T05:28:42.229Z,23.67
2018-07-19T05:31:10.869Z,23.79
2018-07-19T05:33:39.544Z,23.90
2018-07-19T05:36:08.573Z,23.98
2018-07-19T05:38:37.252Z,24.03
2018-07-19T05:41:06.025Z,24.06
2018-07-19T05:43:34.713Z,24.21
2018-07-19T05:47:06.181Z,24.23
2018-07-19T05:49:34.937Z,24.49
2018-07-19T05:52:03.542Z,24.49
2018-07-19T05:54:32.172Z,24.51
2018-07-19T05:57:00.856Z,24.62
2018-07-19T05:59:29.629Z,24.77
2018-07-19T06:01:58.229Z,24.77
2018-07-19T06:04:26.922Z,24.85
2018-07-19T06:06:55.583Z,24.98
2018-07-19T06:09:24.299Z,25.00
2018-07-19T06:11:52.978Z,25.03
2018-07-19T06:14:21.706Z,25.11
2018-07-19T06:16:50.350Z,25.15
2018-07-19T06:19:19.376Z,25.24
2018-07-19T06:21:48.090Z,25.35
2018-07-19T06:24:16.867Z,25.48
2018-07-19T06:26:45.505Z,25.65
2018-07-19T06:29:14.140Z,25.70
2018-07-19T06:31:42.872Z,25.93
2018-07-19T06:34:11.517Z,26.02
2018-07-19T06:36:40.169Z,26.05
2018-07-19T06:39:09.545Z,26.11
2018-07-19T06:41:38.171Z,26.26
2018-07-19T06:44:06.998Z,26.27
2018-07-19T06:46:35.719Z,26.44
2018-07-19T06:49:04.424Z,26.42
2018-07-19T06:51:33.039Z,26.46
2018-07-19T06:54:01.760Z,26.55
2018-07-19T06:56:30.451Z,26.68
2018-07-19T06:58:59.140Z,26.80
2018-07-19T07:01:28.016Z,26.93
2018-07-19T07:03:56.726Z,26.93
2018-07-19T07:06:25.379Z,27.01
2018-07-19T07:08:54.005Z,27.19
2018-07-19T07:11:22.735Z,27.26
2018-07-19T07:13:51.403Z,27.24
2018-07-19T07:16:20.050Z,27.35
2018-07-19T07:18:48.658Z,27.51
2018-07-19T07:21:17.386Z,27.59
2018-07-19T07:23:46.092Z,27.63
2018-07-19T07:26:14.850Z,27.81
2018-07-19T07:28:43.866Z,28.04
2018-07-19T07:31:12.639Z,28.17
2018-07-19T07:33:41.340Z,28.18
2018-07-19T07:36:10.102Z,28.19
2018-07-19T07:38:39.005Z,28.27
2018-07-19T07:41:07.644Z,27.65
2018-07-19T07:43:36.256Z,28.35
2018-07-19T07:46:05.030Z,28.48
2018-07-19T07:48:33.681Z,28.49
2018-07-19T07:51:02.357Z,28.77
2018-07-19T07:53:30.926Z,28.89
2018-07-19T07:55:59.636Z,28.99
2018-07-19T07:58:28.343Z,29.10
2018-07-19T08:00:57.025Z,29.21
2018-07-19T08:03:25.897Z,29.38
2018-07-19T08:05:54.531Z,29.48
2018-07-19T08:08:23.476Z,29.39
2018-07-19T08:10:52.386Z,29.26
2018-07-19T08:13:21.035Z,29.31
2018-07-19T08:15:49.862Z,29.41
2018-07-19T08:18:18.957Z,29.48
2018-07-19T08:20:47.586Z,29.57
2018-07-19T08:23:16.462Z,29.55
2018-07-19T08:25:45.104Z,29.52
2018-07-19T08:28:13.997Z,29.61
2018-07-19T08:30:42.648Z,29.58
2018-07-19T08:33:11.340Z,29.73
2018-07-19T08:35:40.039Z,29.85
2018-07-19T08:38:09.173Z,29.99
2018-07-19T08:40:37.964Z,29.94
2018-07-19T08:43:06.587Z,29.86
2018-07-19T08:45:35.250Z,30.01
2018-07-19T08:48:03.961Z,30.14
2018-07-19T08:50:32.565Z,30.25
2018-07-19T08:53:01.264Z,30.27
2018-07-19T08:55:30.036Z,30.40
2018-07-19T08:57:58.801Z,30.33
2018-07-19T09:00:27.451Z,30.42
2018-07-19T09:02:56.113Z,30.45
2018-07-19T09:05:24.830Z,30.63
2018-07-19T09:07:53.481Z,30.64
2018-07-19T09:10:22.103Z,30.64
2018-07-19T09:12:50.837Z,30.62
2018-07-19T09:15:19.546Z,30.85
2018-07-19T09:17:48.335Z,30.61
2018-07-19T09:20:17.456Z,30.64
2018-07-19T09:22:46.170Z,30.70
2018-07-19T09:25:14.767Z,30.89
2018-07-19T09:27:43.758Z,30.83
2018-07-19T09:30:12.467Z,30.92
2018-07-19T09:32:41.509Z,31.04
2018-07-19T09:35:10.720Z,30.97
2018-07-19T09:37:39.636Z,31.05
2018-07-19T09:40:08.455Z,30.93
2018-07-19T09:42:37.337Z,31.00
2018-07-19T09:45:06.158Z,31.16
2018-07-19T09:47:34.998Z,31.01
2018-07-19T09:50:03.872Z,30.97
2018-07-19T09:52:32.624Z,31.16
2018-07-19T09:55:02.548Z,31.15
2018-07-19T09:57:32.145Z,31.00
2018-07-19T10:00:00.956Z,31.15
2018-07-19T10:02:29.816Z,31.22
2018-07-19T10:04:58.961Z,31.29
2018-07-19T10:07:28.047Z,31.37
2018-07-19T10:09:56.794Z,31.48
2018-07-19T10:12:25.652Z,31.43
2018-07-19T10:14:54.442Z,31.28
2018-07-19T10:17:23.449Z,31.16
2018-07-19T10:19:52.197Z,31.12
2018-07-19T10:22:21.295Z,30.90
2018-07-19T10:24:50.074Z,30.91
2018-07-19T10:27:18.907Z,31.17
2018-07-19T10:29:47.667Z,31.21
2018-07-19T10:32:16.637Z,31.20
2018-07-19T10:34:45.338Z,30.99
2018-07-19T10:37:14.197Z,31.02
2018-07-19T10:39:43.000Z,30.84
2018-07-19T10:42:12.051Z,30.76
2018-07-19T10:44:40.915Z,30.60
2018-07-19T10:47:09.946Z,30.78
2018-07-19T10:49:40.806Z,30.82
2018-07-19T10:52:09.908Z,30.88
2018-07-19T10:54:38.624Z,31.05
2018-07-19T10:57:07.618Z,30.96
2018-07-19T10:59:36.561Z,30.79
2018-07-19T11:02:05.280Z,30.69
2018-07-19T11:04:34.252Z,30.87
2018-07-19T11:07:03.134Z,31.28
2018-07-19T11:09:32.278Z,31.41
2018-07-19T11:12:01.346Z,31.12
2018-07-19T11:14:30.230Z,31.31
2018-07-19T11:16:59.207Z,31.22
2018-07-19T11:19:27.989Z,31.01
2018-07-19T11:21:57.155Z,30.95
2018-07-19T11:24:25.992Z,30.89
2018-07-19T11:26:54.839Z,31.02
2018-07-19T11:29:23.887Z,31.10
2018-07-19T11:31:52.744Z,30.51
2018-07-19T11:34:21.883Z,30.59
2018-07-19T11:36:50.741Z,30.90
2018-07-19T11:39:19.577Z,30.62
2018-07-19T11:41:48.825Z,30.41
2018-07-19T11:44:17.639Z,30.43
2018-07-19T11:46:46.720Z,30.38
2018-07-19T11:49:15.505Z,30.45
2018-07-19T11:51:44.202Z,30.65
2018-07-19T11:54:13.003Z,30.58
2018-07-19T11:56:41.611Z,30.78
2018-07-19T11:59:13.401Z,30.60
2018-07-19T12:01:42.185Z,30.59
2018-07-19T12:04:10.935Z,29.96
2018-07-19T12:06:39.884Z,29.79
2018-07-19T12:09:10.307Z,29.72
2018-07-19T12:11:39.173Z,29.01
2018-07-19T12:14:08.119Z,29.08
2018-07-19T12:16:36.887Z,29.09
2018-07-19T12:19:05.800Z,29.07
2018-07-19T12:21:34.546Z,29.52
2018-07-19T12:24:03.491Z,29.47
2018-07-19T12:26:32.482Z,29.72
2018-07-19T12:29:01.264Z,29.54
2018-07-19T12:31:30.010Z,29.85
2018-07-19T12:33:58.716Z,30.11
2018-07-19T12:36:27.559Z,30.27
2018-07-19T12:38:56.423Z,29.93
2018-07-19T12:41:25.405Z,30.03
2018-07-19T12:43:54.208Z,29.68
2018-07-19T12:46:23.263Z,29.88
2018-07-19T12:48:52.242Z,29.95
2018-07-19T12:51:21.351Z,29.89
2018-07-19T12:53:50.075Z,29.74
2018-07-19T12:56:18.820Z,29.49
2018-07-19T12:58:47.663Z,29.20
2018-07-19T13:01:16.451Z,29.54
2018-07-19T13:03:45.313Z,29.19
2018-07-19T13:06:14.096Z,28.99
2018-07-19T13:08:42.888Z,29.29
2018-07-19T13:11:11.776Z,29.47
2018-07-19T13:13:41.423Z,29.47
2018-07-19T13:16:10.618Z,29.77
2018-07-19T13:18:39.448Z,29.71
2018-07-19T13:21:08.268Z,29.94
2018-07-19T13:23:37.307Z,29.67
2018-07-19T13:26:06.131Z,29.61
2018-07-19T13:28:34.833Z,29.44
2018-07-19T13:31:03.608Z,29.99
2018-07-19T13:33:32.606Z,30.00
2018-07-19T13:36:06.341Z,30.51
2018-07-19T13:38:35.233Z,30.78
2018-07-19T13:41:04.385Z,31.24
2018-07-19T13:43:33.269Z,31.76
2018-07-19T13:46:02.060Z,32.03
2018-07-19T13:48:31.149Z,31.41
2018-07-19T13:51:00.015Z,31.97
2018-07-19T13:53:40.910Z,31.78
2018-07-19T13:56:10.308Z,31.96
2018-07-19T13:58:39.682Z,31.51
2018-07-19T14:01:08.676Z,31.28
2018-07-19T14:03:37.762Z,30.76
2018-07-19T14:06:06.629Z,30.34
2018-07-19T14:08:35.539Z,30.59
2018-07-19T14:11:04.446Z,30.63
2018-07-19T14:13:33.463Z,30.68
2018-07-19T14:16:02.493Z,30.34
2018-07-19T14:18:31.251Z,30.62
2018-07-19T14:21:00.118Z,30.72
2018-07-19T14:23:28.983Z,29.63
2018-07-19T14:25:57.709Z,29.97
2018-07-19T14:28:26.613Z,30.53
2018-07-19T14:30:55.604Z,30.59
2018-07-19T14:33:24.371Z,31.05
2018-07-19T14:35:53.330Z,31.17
2018-07-19T14:38:22.707Z,31.41
2018-07-19T14:40:51.489Z,31.10
2018-07-19T14:43:20.372Z,31.15
2018-07-19T14:45:49.209Z,31.72
2018-07-19T14:48:18.017Z,32.41
2018-07-19T14:50:46.907Z,32.43
2018-07-19T14:53:15.779Z,31.75
2018-07-19T14:55:44.555Z,31.87
2018-07-19T14:58:13.506Z,32.48
2018-07-19T15:00:42.352Z,32.75
2018-07-19T15:03:11.637Z,33.23
2018-07-19T15:05:40.472Z,34.14
2018-07-19T15:08:09.352Z,34.60
2018-07-19T15:10:38.196Z,35.17
2018-07-19T15:13:07.175Z,35.27
2018-07-19T15:15:36.267Z,35.63
2018-07-19T15:18:05.259Z,34.75
2018-07-19T15:20:34.090Z,34.79
2018-07-19T15:23:03.028Z,34.02
2018-07-19T15:25:32.104Z,33.52
2018-07-19T15:28:00.956Z,33.41
2018-07-19T15:30:29.813Z,32.43
2018-07-19T15:32:58.853Z,31.53
2018-07-19T15:35:27.562Z,31.32
2018-07-19T15:37:56.320Z,30.73
2018-07-19T15:40:25.435Z,29.71
2018-07-19T15:42:54.371Z,29.64
2018-07-19T15:45:23.258Z,29.69
2018-07-19T15:47:52.103Z,29.26
2018-07-19T15:50:20.851Z,29.26
2018-07-19T15:52:49.704Z,29.20
2018-07-19T15:55:18.550Z,29.10
2018-07-19T15:57:47.365Z,28.72
2018-07-19T16:00:16.249Z,28.75
2018-07-19T16:02:45.047Z,28.83
2018-07-19T16:05:13.942Z,28.72
2018-07-19T16:07:42.726Z,28.33
2018-07-19T16:10:12.569Z,28.47
2018-07-19T16:12:41.359Z,28.16
2018-07-19T16:15:10.249Z,28.23
2018-07-19T16:17:39.034Z,28.17
2018-07-19T16:20:08.037Z,28.20
2018-07-19T16:22:37.083Z,28.19
2018-07-19T16:25:06.038Z,28.04
2018-07-19T16:27:35.016Z,27.97
2018-07-19T16:30:03.926Z,27.92
2018-07-19T16:32:32.771Z,28.03
2018-07-19T16:35:04.296Z,27.98
2018-07-19T16:37:33.376Z,27.98
2018-07-19T16:40:02.138Z,27.82
2018-07-19T16:42:30.967Z,27.79
2018-07-19T16:44:59.665Z,27.78
2018-07-19T16:47:28.653Z,27.75
2018-07-19T16:49:57.591Z,27.72
2018-07-19T16:52:26.718Z,27.70
2018-07-19T16:54:55.566Z,27.55
2018-07-19T16:57:24.753Z,27.32
2018-07-19T16:59:53.565Z,27.38
2018-07-19T17:02:22.702Z,27.30
2018-07-19T17:04:51.452Z,27.33
2018-07-19T17:07:20.051Z,27.31
2018-07-19T17:09:48.635Z,27.26
2018-07-19T17:12:17.746Z,27.21
2018-07-19T17:14:46.573Z,27.14
2018-07-19T17:17:15.313Z,27.14
2018-07-19T17:19:43.982Z,27.08
2018-07-19T17:22:13.080Z,27.08
2018-07-19T17:24:41.769Z,27.09
2018-07-19T17:27:10.566Z,27.05
2018-07-19T17:29:39.584Z,27.05
2018-07-19T17:32:08.343Z,26.93
2018-07-19T17:34:37.255Z,27.00
2018-07-19T17:37:06.360Z,26.98
2018-07-19T17:39:35.137Z,26.94
2018-07-19T17:42:03.755Z,26.93
2018-07-19T17:44:32.586Z,26.88
2018-07-19T17:47:01.290Z,26.81
2018-07-19T17:49:30.259Z,26.80
2018-07-19T17:51:58.819Z,26.78
2018-07-19T17:54:28.052Z,26.67
2018-07-19T17:56:56.810Z,26.61
2018-07-19T17:59:25.499Z,26.56
2018-07-19T18:01:54.142Z,26.41
2018-07-19T18:04:23.120Z,26.39
2018-07-19T18:06:52.167Z,26.45
2018-07-19T18:09:21.037Z,26.47
2018-07-19T18:11:49.963Z,26.43
2018-07-19T18:14:18.640Z,26.39
2018-07-19T18:16:47.379Z,26.27
2018-07-19T18:19:16.081Z,26.22
2018-07-19T18:21:44.808Z,26.20
2018-07-19T18:24:13.421Z,26.12
2018-07-19T18:26:42.109Z,26.09
2018-07-19T18:29:10.732Z,26.11
2018-07-19T18:31:39.557Z,26.11
2018-07-19T18:34:08.213Z,26.05
2018-07-19T18:36:37.415Z,25.95
2018-07-19T18:39:08.908Z,26.00
2018-07-19T18:41:37.561Z,25.96
2018-07-19T18:44:06.431Z,25.87
2018-07-19T18:46:35.228Z,25.76
2018-07-19T18:49:04.017Z,25.73
2018-07-19T18:51:32.704Z,25.70
2018-07-19T18:54:01.428Z,25.68
2018-07-19T18:56:30.319Z,25.67
2018-07-19T18:58:58.984Z,25.59
2018-07-19T19:01:27.701Z,25.52
2018-07-19T19:03:56.486Z,25.43
2018-07-19T19:06:25.367Z,25.35
2018-07-19T19:08:54.135Z,25.28
2018-07-19T19:11:22.837Z,25.18
2018-07-19T19:13:51.504Z,25.11
2018-07-19T19:16:20.174Z,25.07
2018-07-19T19:18:48.817Z,24.96
2018-07-19T19:21:17.570Z,24.94
2018-07-19T19:23:53.457Z,24.81
2018-07-19T19:26:22.185Z,24.76
2018-07-19T19:28:50.698Z,24.73
2018-07-19T19:31:19.763Z,24.69
2018-07-19T19:33:48.591Z,24.62
2018-07-19T19:36:17.207Z,24.62
2018-07-19T19:38:46.116Z,24.62
2018-07-19T19:41:15.249Z,24.62
2018-07-19T19:43:44.439Z,24.56
2018-07-19T19:46:13.268Z,24.46
2018-07-19T19:48:42.149Z,24.43
2018-07-19T19:51:11.247Z,24.40
2018-07-19T19:53:40.019Z,24.31
2018-07-19T19:56:09.444Z,24.24
2018-07-19T19:58:38.412Z,24.14
2018-07-19T20:01:07.060Z,24.14
2018-07-19T20:03:36.034Z,24.10
2018-07-19T20:06:05.105Z,24.00
2018-07-19T20:08:33.796Z,23.93
2018-07-19T20:11:02.423Z,23.81
2018-07-19T20:13:31.240Z,23.86
2018-07-19T20:15:59.885Z,23.84
2018-07-19T20:18:28.962Z,23.82
2018-07-19T20:20:57.544Z,23.73
2018-07-19T20:23:26.673Z,23.64
2018-07-19T20:25:55.370Z,23.57
2018-07-19T20:28:24.365Z,23.53
2018-07-19T20:30:52.982Z,23.46
2018-07-19T20:33:21.945Z,23.40
2018-07-19T20:35:50.689Z,23.37
2018-07-19T20:38:19.351Z,23.32
2018-07-19T20:40:48.395Z,23.30
2018-07-19T20:43:17.029Z,23.31
2018-07-19T20:45:46.309Z,23.25
2018-07-19T20:48:15.485Z,23.23
2018-07-19T20:50:44.156Z,23.22
2018-07-19T20:53:12.772Z,23.19
2018-07-19T20:55:42.293Z,23.14
2018-07-19T20:58:11.004Z,23.11
2018-07-19T21:00:40.760Z,23.13
2018-07-19T21:03:09.419Z,23.09
2018-07-19T21:05:38.192Z,23.03
2018-07-19T21:08:06.973Z,23.02
2018-07-19T21:10:35.916Z,22.87
2018-07-19T21:13:04.617Z,22.83
2018-07-19T21:15:33.289Z,22.79
2018-07-19T21:18:01.913Z,22.76
2018-07-19T21:20:30.973Z,22.71
2018-07-19T21:22:59.638Z,22.68
2018-07-19T21:25:28.284Z,22.67
2018-07-19T21:27:56.933Z,22.00
2018-07-19T21:30:25.501Z,22.65
2018-07-19T21:32:54.097Z,22.62
2018-07-19T21:35:22.733Z,22.58
2018-07-19T21:37:51.461Z,22.52
2018-07-19T21:40:20.156Z,22.47
2018-07-19T21:42:48.945Z,22.38
2018-07-19T21:45:18.194Z,22.36
2018-07-19T21:47:47.327Z,22.30
2018-07-19T21:50:16.171Z,22.19
2018-07-19T21:52:44.793Z,22.12
2018-07-19T21:55:13.541Z,22.08
2018-07-19T21:57:42.409Z,22.02
2018-07-19T22:00:11.197Z,21.99
2018-07-19T22:02:39.973Z,21.95
2018-07-19T22:05:09.401Z,21.93
2018-07-19T22:07:38.111Z,21.78
2018-07-19T22:10:06.874Z,21.74
2018-07-19T22:12:35.457Z,21.71
2018-07-19T22:15:04.501Z,21.65
2018-07-19T22:17:33.301Z,21.55
2018-07-19T22:20:01.915Z,21.53
2018-07-19T22:22:30.801Z,21.54
2018-07-19T22:24:59.395Z,21.45
2018-07-19T22:27:28.060Z,21.47
2018-07-19T22:29:56.680Z,21.32
2018-07-19T22:32:25.249Z,21.22
2018-07-19T22:34:53.930Z,21.23
2018-07-19T22:37:22.567Z,21.18
2018-07-19T22:39:51.248Z,21.16
2018-07-19T22:42:19.874Z,21.12
2018-07-19T22:44:48.625Z,21.10
2018-07-19T22:47:17.247Z,21.05
2018-07-19T22:49:45.940Z,20.97
2018-07-19T22:52:14.565Z,20.88
2018-07-19T22:54:43.184Z,20.87
2018-07-19T22:57:11.828Z,20.78
2018-07-19T22:59:40.521Z,20.75
2018-07-19T23:02:09.205Z,20.69
2018-07-19T23:04:37.902Z,20.64
2018-07-19T23:07:06.522Z,20.59
2018-07-19T23:09:35.070Z,20.54
2018-07-19T23:12:03.762Z,20.49
2018-07-19T23:14:32.863Z,20.51
2018-07-19T23:17:01.508Z,20.48
2018-07-19T23:19:30.107Z,20.21
2018-07-19T23:21:58.721Z,20.24
2018-07-19T23:24:27.341Z,20.14
2018-07-19T23:26:56.113Z,20.18
2018-07-19T23:29:24.761Z,20.17
2018-07-19T23:31:53.522Z,20.11
2018-07-19T23:34:22.185Z,20.07
2018-07-19T23:36:56.147Z,20.03
2018-07-19T23:39:33.917Z,19.96
2018-07-19T23:42:09.142Z,19.89
2018-07-19T23:44:42.879Z,19.80
2018-07-19T23:47:15.055Z,19.79
2018-07-19T23:49:43.653Z,19.76
2018-07-19T23:52:12.302Z,19.67
2018-07-19T23:54:40.938Z,19.67
2018-07-19T23:57:09.584Z,19.55
2018-07-19T23:59:38.401Z,19.49
